createdAt,value
2022-10-26T00:01:10.526Z,7.41
2022-10-26T00:03:38.366Z,7.38
2022-10-26T00:06:07.308Z,7.37
2022-10-26T00:08:34.791Z,7.28
2022-10-26T00:11:01.784Z,7.29
2022-10-26T00:13:33.579Z,7.40
2022-10-26T00:18:34.478Z,7.51
2022-10-26T00:21:03.856Z,7.65
2022-10-26T00:23:32.891Z,7.63
2022-10-26T00:26:00.110Z,7.73
2022-10-26T00:28:29.700Z,7.85
2022-10-26T00:31:03.150Z,7.82
2022-10-26T00:33:34.385Z,7.81
2022-10-26T00:36:01.107Z,7.84
2022-10-26T00:38:28.376Z,7.73
2022-10-26T00:43:41.334Z,7.78
2022-10-26T00:46:12.121Z,7.58
2022-10-26T00:48:46.051Z,7.68
2022-10-26T00:51:19.753Z,7.75
2022-10-26T00:53:47.445Z,7.77
2022-10-26T00:56:14.399Z,7.67
2022-10-26T00:58:42.029Z,7.62
2022-10-26T01:01:09.257Z,7.56
2022-10-26T01:03:37.197Z,7.65
2022-10-26T01:06:06.264Z,7.71
2022-10-26T01:08:33.890Z,7.68
2022-10-26T01:11:01.398Z,7.74
2022-10-26T01:13:31.556Z,7.64
2022-10-26T01:16:20.441Z,7.56
2022-10-26T01:18:57.411Z,7.53
2022-10-26T01:21:54.237Z,7.47
2022-10-26T01:24:37.453Z,7.47
2022-10-26T01:27:27.204Z,7.51
2022-10-26T01:30:21.990Z,7.42
2022-10-26T01:33:04.915Z,7.47
2022-10-26T01:35:35.982Z,7.51
2022-10-26T01:38:08.046Z,7.53
2022-10-26T01:40:40.527Z,7.52
2022-10-26T01:43:12.085Z,7.53
2022-10-26T01:45:44.093Z,7.54
2022-10-26T01:48:13.585Z,7.67
2022-10-26T01:50:44.056Z,7.58
2022-10-26T01:53:12.110Z,7.54
2022-10-26T01:55:49.203Z,7.65
2022-10-26T01:58:33.182Z,7.80
2022-10-26T02:01:11.797Z,7.68
2022-10-26T02:03:45.730Z,7.82
2022-10-26T02:06:19.510Z,7.71
2022-10-26T02:09:02.465Z,7.61
2022-10-26T02:11:38.087Z,7.75
2022-10-26T02:16:53.241Z,7.78
2022-10-26T02:19:32.015Z,7.75
2022-10-26T02:22:06.322Z,7.68
2022-10-26T02:24:36.426Z,7.58
2022-10-26T02:27:07.958Z,7.69
2022-10-26T02:29:35.562Z,7.68
2022-10-26T02:32:07.972Z,7.63
2022-10-26T02:34:38.133Z,7.73
2022-10-26T02:37:06.293Z,7.75
2022-10-26T02:39:36.174Z,7.75
2022-10-26T02:42:06.415Z,7.81
2022-10-26T02:44:42.726Z,7.75
2022-10-26T02:47:20.669Z,7.64
2022-10-26T02:49:48.778Z,7.68
2022-10-26T02:52:23.423Z,7.57
2022-10-26T02:55:00.474Z,7.71
2022-10-26T02:57:36.562Z,7.77
2022-10-26T03:00:03.995Z,7.70
2022-10-26T03:02:32.229Z,7.66
2022-10-26T03:05:09.640Z,7.77
2022-10-26T03:07:36.774Z,7.85
2022-10-26T03:10:04.023Z,7.69
2022-10-26T03:12:31.886Z,7.79
2022-10-26T03:14:58.763Z,7.73
2022-10-26T03:17:25.588Z,7.80
2022-10-26T03:19:55.311Z,7.75
2022-10-26T03:22:22.496Z,7.81
2022-10-26T03:24:51.347Z,7.73
2022-10-26T03:27:18.119Z,7.66
2022-10-26T03:29:46.038Z,7.66
2022-10-26T03:32:12.908Z,7.59
2022-10-26T03:34:39.794Z,7.58
2022-10-26T03:37:08.212Z,7.69
2022-10-26T03:39:34.983Z,7.59
2022-10-26T03:42:01.967Z,7.71
2022-10-26T03:44:28.974Z,7.74
2022-10-26T03:46:58.206Z,7.74
2022-10-26T03:49:27.293Z,7.57
2022-10-26T03:51:55.526Z,7.58
2022-10-26T03:54:23.738Z,7.56
2022-10-26T03:56:54.320Z,7.63
2022-10-26T03:59:22.555Z,7.57
2022-10-26T04:01:52.738Z,7.50
2022-10-26T04:04:22.466Z,7.68
2022-10-26T04:06:50.641Z,7.67
2022-10-26T04:09:17.751Z,7.80
2022-10-26T04:11:47.019Z,7.73
2022-10-26T04:14:14.089Z,7.79
2022-10-26T04:16:41.249Z,7.81
2022-10-26T04:19:09.100Z,7.73
2022-10-26T04:21:35.876Z,7.62
2022-10-26T04:24:02.852Z,7.68
2022-10-26T04:26:29.630Z,7.56
2022-10-26T04:28:59.238Z,7.32
2022-10-26T04:31:25.976Z,7.18
2022-10-26T04:33:52.804Z,7.31
2022-10-26T04:36:22.183Z,7.41
2022-10-26T04:38:49.039Z,7.44
2022-10-26T04:41:16.187Z,7.45
2022-10-26T04:43:43.134Z,7.43
2022-10-26T04:46:14.415Z,7.37
2022-10-26T04:48:43.583Z,7.25
2022-10-26T04:51:10.459Z,7.27
2022-10-26T04:53:37.168Z,7.28
2022-10-26T04:56:04.573Z,7.26
2022-10-26T04:58:31.405Z,7.33
2022-10-26T05:00:58.609Z,7.31
2022-10-26T05:03:26.876Z,7.24
2022-10-26T05:05:53.710Z,7.29
2022-10-26T05:08:20.551Z,7.39
2022-10-26T05:10:49.242Z,7.39
2022-10-26T05:13:16.613Z,7.35
2022-10-26T05:15:43.824Z,7.26
2022-10-26T05:18:10.615Z,7.35
2022-10-26T05:20:38.859Z,7.34
2022-10-26T05:23:07.582Z,7.22
2022-10-26T05:25:38.197Z,7.12
2022-10-26T05:28:07.079Z,7.12
2022-10-26T05:30:34.534Z,7.23
2022-10-26T05:33:02.241Z,7.25
2022-10-26T05:35:30.672Z,7.09
2022-10-26T05:38:06.828Z,7.15
2022-10-26T05:40:35.009Z,7.18
2022-10-26T05:43:03.224Z,7.23
2022-10-26T05:45:30.235Z,7.28
2022-10-26T05:47:59.994Z,7.22
2022-10-26T05:50:30.206Z,7.27
2022-10-26T05:53:00.461Z,7.13
2022-10-26T05:55:29.432Z,6.98
2022-10-26T05:57:58.850Z,7.14
2022-10-26T06:00:27.751Z,7.16
2022-10-26T06:03:08.729Z,7.20
2022-10-26T06:05:45.634Z,7.14
2022-10-26T06:08:14.777Z,7.22
2022-10-26T06:10:42.323Z,7.20
2022-10-26T06:13:11.049Z,7.17
2022-10-26T06:15:47.125Z,7.21
2022-10-26T06:18:21.747Z,7.20
2022-10-26T06:20:58.244Z,7.23
2022-10-26T06:23:42.205Z,7.23
2022-10-26T06:26:16.781Z,7.28
2022-10-26T06:28:54.329Z,7.35
2022-10-26T06:31:22.520Z,7.38
2022-10-26T06:33:56.726Z,7.29
2022-10-26T06:36:26.344Z,7.24
2022-10-26T06:39:00.623Z,7.20
2022-10-26T06:41:27.258Z,7.23
2022-10-26T06:43:54.680Z,7.27
2022-10-26T06:46:34.401Z,7.42
2022-10-26T06:49:11.759Z,7.38
2022-10-26T06:51:47.518Z,7.35
2022-10-26T06:54:22.203Z,7.33
2022-10-26T06:56:49.718Z,7.27
2022-10-26T06:59:25.593Z,7.19
2022-10-26T07:01:53.872Z,7.19
2022-10-26T07:04:20.944Z,7.31
2022-10-26T07:06:48.838Z,7.48
2022-10-26T07:09:17.375Z,7.57
2022-10-26T07:11:46.430Z,7.64
2022-10-26T07:14:13.262Z,7.78
2022-10-26T07:16:40.291Z,8.02
2022-10-26T07:19:07.724Z,8.27
2022-10-26T07:21:35.720Z,8.47
2022-10-26T07:24:04.304Z,8.73
2022-10-26T07:26:32.402Z,9.00
2022-10-26T07:29:00.606Z,9.27
2022-10-26T07:31:27.523Z,9.51
2022-10-26T07:33:54.750Z,9.79
2022-10-26T07:36:21.995Z,10.01
2022-10-26T07:38:53.247Z,10.03
2022-10-26T07:41:20.409Z,10.16
2022-10-26T07:43:48.858Z,10.32
2022-10-26T07:46:16.769Z,10.51
2022-10-26T07:51:17.315Z,10.88
2022-10-26T07:53:45.492Z,11.01
2022-10-26T07:56:12.918Z,11.13
2022-10-26T07:58:40.846Z,11.22
2022-10-26T08:01:11.374Z,11.35
2022-10-26T08:03:38.523Z,11.57
2022-10-26T08:06:06.893Z,11.82
2022-10-26T08:08:35.056Z,12.06
2022-10-26T08:11:04.422Z,12.25
2022-10-26T08:13:32.489Z,12.47
2022-10-26T08:16:08.510Z,12.60
2022-10-26T08:18:39.414Z,12.67
2022-10-26T08:21:11.669Z,12.67
2022-10-26T08:23:41.339Z,12.67
2022-10-26T08:26:10.130Z,12.73
2022-10-26T08:28:38.355Z,12.59
2022-10-26T08:31:07.913Z,12.37
2022-10-26T08:33:36.219Z,12.53
2022-10-26T08:36:05.650Z,12.68
2022-10-26T08:38:32.672Z,12.57
2022-10-26T08:41:13.854Z,12.70
2022-10-26T08:43:45.786Z,12.85
2022-10-26T08:46:17.662Z,13.00
2022-10-26T08:48:50.925Z,13.21
2022-10-26T08:51:20.714Z,13.39
2022-10-26T08:53:51.919Z,13.57
2022-10-26T08:56:25.263Z,13.74
2022-10-26T08:58:56.194Z,13.88
2022-10-26T09:01:25.147Z,13.96
2022-10-26T09:03:53.768Z,14.14
2022-10-26T09:06:29.890Z,14.30
2022-10-26T09:09:05.991Z,14.33
2022-10-26T09:11:47.366Z,14.54
2022-10-26T09:14:21.581Z,14.33
2022-10-26T09:17:02.905Z,14.50
2022-10-26T09:20:08.508Z,14.73
2022-10-26T09:22:44.972Z,14.91
2022-10-26T09:25:18.582Z,15.11
2022-10-26T09:27:48.935Z,15.27
2022-10-26T09:30:18.866Z,15.42
2022-10-26T09:32:49.722Z,15.53
2022-10-26T09:35:24.082Z,15.46
2022-10-26T09:37:58.346Z,15.33
2022-10-26T09:40:31.990Z,15.21
2022-10-26T09:43:04.891Z,15.29
2022-10-26T09:45:38.223Z,15.50
2022-10-26T09:48:07.516Z,15.75
2022-10-26T09:50:40.178Z,15.91
2022-10-26T09:53:06.970Z,16.05
2022-10-26T09:55:42.520Z,16.09
2022-10-26T09:58:15.817Z,16.41
2022-10-26T10:00:47.760Z,16.62
2022-10-26T10:03:20.707Z,16.61
2022-10-26T10:05:52.445Z,16.41
2022-10-26T10:08:23.320Z,16.24
2022-10-26T10:11:01.065Z,15.99
2022-10-26T10:13:31.027Z,15.69
2022-10-26T10:16:05.024Z,15.61
2022-10-26T10:18:33.074Z,15.50
2022-10-26T10:21:03.357Z,15.36
2022-10-26T10:23:32.631Z,15.26
2022-10-26T10:26:02.835Z,15.16
2022-10-26T10:28:30.290Z,15.04
2022-10-26T10:31:02.658Z,14.99
2022-10-26T10:33:37.456Z,14.99
2022-10-26T10:36:12.039Z,15.06
2022-10-26T10:38:41.583Z,15.13
2022-10-26T10:41:29.268Z,15.18
2022-10-26T10:44:06.021Z,15.12
2022-10-26T10:46:35.564Z,15.36
2022-10-26T10:49:04.345Z,15.58
2022-10-26T10:51:40.390Z,15.91
2022-10-26T10:54:20.863Z,16.25
2022-10-26T10:56:52.315Z,16.47
2022-10-26T10:59:39.786Z,16.44
2022-10-26T11:02:44.672Z,16.34
2022-10-26T11:05:27.126Z,16.15
2022-10-26T11:08:05.439Z,16.02
2022-10-26T11:10:37.478Z,15.82
2022-10-26T11:13:15.547Z,15.35
2022-10-26T11:15:44.370Z,15.42
2022-10-26T11:18:16.930Z,14.88
2022-10-26T11:20:51.658Z,15.20
2022-10-26T11:23:30.828Z,15.37
2022-10-26T11:26:04.874Z,15.13
2022-10-26T11:28:38.669Z,15.20
2022-10-26T11:31:10.918Z,15.40
2022-10-26T11:33:58.738Z,15.54
2022-10-26T11:36:28.931Z,15.70
2022-10-26T11:39:11.524Z,15.81
2022-10-26T11:41:45.854Z,15.79
2022-10-26T11:44:19.323Z,15.79
2022-10-26T11:46:50.970Z,15.79
2022-10-26T11:49:24.573Z,15.82
2022-10-26T11:51:59.729Z,15.90
2022-10-26T11:54:33.669Z,16.02
2022-10-26T11:57:02.350Z,15.80
2022-10-26T11:59:33.826Z,15.69
2022-10-26T12:02:06.047Z,15.65
2022-10-26T12:04:37.417Z,15.72
2022-10-26T12:07:12.438Z,15.22
2022-10-26T12:09:43.919Z,15.37
2022-10-26T12:12:21.165Z,15.39
2022-10-26T12:14:56.241Z,15.38
2022-10-26T12:17:30.397Z,15.27
2022-10-26T12:20:07.605Z,15.26
2022-10-26T12:22:40.037Z,15.27
2022-10-26T12:25:19.877Z,15.33
2022-10-26T12:27:53.267Z,15.12
2022-10-26T12:30:29.101Z,15.26
2022-10-26T12:32:57.381Z,15.43
2022-10-26T12:35:40.522Z,15.68
2022-10-26T12:38:48.992Z,15.77
2022-10-26T12:41:23.301Z,15.72
2022-10-26T12:43:50.829Z,15.49
2022-10-26T12:46:42.850Z,15.46
2022-10-26T12:49:55.549Z,15.38
2022-10-26T12:52:49.220Z,15.30
2022-10-26T12:55:55.402Z,15.23
2022-10-26T12:58:37.186Z,15.26
2022-10-26T13:01:40.340Z,15.23
2022-10-26T13:04:36.641Z,15.22
2022-10-26T13:07:35.155Z,15.20
2022-10-26T13:10:06.164Z,15.27
2022-10-26T13:12:48.836Z,15.28
2022-10-26T13:15:24.839Z,15.26
2022-10-26T13:18:07.650Z,15.19
2022-10-26T13:20:39.539Z,15.03
2022-10-26T13:23:19.577Z,14.91
2022-10-26T13:26:03.191Z,14.78
2022-10-26T13:28:44.095Z,14.65
2022-10-26T13:31:40.792Z,14.58
2022-10-26T13:36:56.753Z,14.56
2022-10-26T13:39:29.530Z,14.77
2022-10-26T13:42:00.716Z,14.97
2022-10-26T13:44:33.452Z,15.19
2022-10-26T13:47:11.331Z,15.27
2022-10-26T13:49:40.495Z,15.34
2022-10-26T13:52:16.272Z,15.36
2022-10-26T13:54:51.024Z,15.44
2022-10-26T13:57:22.906Z,15.49
2022-10-26T13:59:51.213Z,15.42
2022-10-26T14:02:24.305Z,15.43
2022-10-26T14:04:59.507Z,15.47
2022-10-26T14:07:35.041Z,15.54
2022-10-26T14:10:02.938Z,15.59
2022-10-26T14:12:31.312Z,15.65
2022-10-26T14:15:05.639Z,15.63
2022-10-26T14:17:34.590Z,15.59
2022-10-26T14:20:02.713Z,15.59
2022-10-26T14:22:30.582Z,15.53
2022-10-26T14:24:59.662Z,15.45
2022-10-26T14:27:33.136Z,15.29
2022-10-26T14:30:21.622Z,15.12
2022-10-26T14:32:52.262Z,14.93
2022-10-26T14:35:23.027Z,14.96
2022-10-26T14:37:56.885Z,14.61
2022-10-26T14:40:26.261Z,14.63
2022-10-26T14:42:56.817Z,14.68
2022-10-26T14:45:46.909Z,14.75
2022-10-26T14:48:23.537Z,14.84
2022-10-26T14:51:01.880Z,14.90
2022-10-26T14:53:35.982Z,14.90
2022-10-26T14:56:04.487Z,14.87
2022-10-26T14:58:35.114Z,14.81
2022-10-26T15:01:36.172Z,14.74
2022-10-26T15:04:07.447Z,14.69
2022-10-26T15:06:41.358Z,14.64
2022-10-26T15:09:30.137Z,14.50
2022-10-26T15:11:56.951Z,14.28
2022-10-26T15:14:25.847Z,14.18
2022-10-26T15:16:55.063Z,13.99
2022-10-26T15:19:26.953Z,13.85
2022-10-26T15:21:54.263Z,13.72
2022-10-26T15:24:30.276Z,13.62
2022-10-26T15:27:07.039Z,13.44
2022-10-26T15:29:38.239Z,13.26
2022-10-26T15:32:18.268Z,13.18
2022-10-26T15:34:49.626Z,12.71
2022-10-26T15:37:17.027Z,12.89
2022-10-26T15:39:44.084Z,12.84
2022-10-26T15:42:13.752Z,12.64
2022-10-26T15:44:41.617Z,12.58
2022-10-26T15:47:18.518Z,12.45
2022-10-26T15:49:48.257Z,12.42
2022-10-26T15:52:16.668Z,12.41
2022-10-26T15:54:43.404Z,12.27
2022-10-26T15:57:14.553Z,12.01
2022-10-26T15:59:43.536Z,11.96
2022-10-26T16:02:15.549Z,11.91
2022-10-26T16:04:44.649Z,11.92
2022-10-26T16:07:14.935Z,11.88
2022-10-26T16:09:43.215Z,11.82
2022-10-26T16:12:11.166Z,11.72
2022-10-26T16:14:53.341Z,11.67
2022-10-26T16:17:25.236Z,11.60
2022-10-26T16:19:52.635Z,11.59
2022-10-26T16:22:21.676Z,11.30
2022-10-26T16:24:48.465Z,11.12
2022-10-26T16:27:15.405Z,11.23
2022-10-26T16:29:42.343Z,11.14
2022-10-26T16:32:09.235Z,11.12
2022-10-26T16:34:35.988Z,11.07
2022-10-26T16:37:02.933Z,11.05
2022-10-26T16:39:31.208Z,10.93
2022-10-26T16:41:57.938Z,10.93
2022-10-26T16:44:24.690Z,10.69
2022-10-26T16:46:51.438Z,10.46
2022-10-26T16:49:20.636Z,10.63
2022-10-26T16:51:47.402Z,10.63
2022-10-26T16:54:14.511Z,10.73
2022-10-26T16:56:42.673Z,10.75
2022-10-26T16:59:09.604Z,10.67
2022-10-26T17:01:36.448Z,10.60
2022-10-26T17:06:30.372Z,10.55
2022-10-26T17:08:57.491Z,10.51
2022-10-26T17:11:24.354Z,10.49
2022-10-26T17:13:55.890Z,10.50
2022-10-26T17:16:26.412Z,10.40
2022-10-26T17:18:53.968Z,10.47
2022-10-26T17:21:28.957Z,10.48
2022-10-26T17:23:55.960Z,10.35
2022-10-26T17:26:24.925Z,10.29
2022-10-26T17:28:52.110Z,10.15
2022-10-26T17:31:38.574Z,10.04
2022-10-26T17:34:05.706Z,9.93
2022-10-26T17:36:32.593Z,9.94
2022-10-26T17:38:59.471Z,9.94
2022-10-26T17:41:26.973Z,9.90
2022-10-26T17:43:53.816Z,9.88
2022-10-26T17:46:22.933Z,9.81
2022-10-26T17:48:53.687Z,9.75
2022-10-26T17:51:20.972Z,9.71
2022-10-26T17:53:48.674Z,9.56
2022-10-26T17:56:17.888Z,9.53
2022-10-26T17:58:44.967Z,9.56
2022-10-26T18:01:13.418Z,9.56
2022-10-26T18:03:40.758Z,9.55
2022-10-26T18:06:09.463Z,9.56
2022-10-26T18:08:38.415Z,9.63
2022-10-26T18:11:06.543Z,9.61
2022-10-26T18:13:35.572Z,9.65
2022-10-26T18:16:03.622Z,9.69
2022-10-26T18:18:32.099Z,9.62
2022-10-26T18:21:02.473Z,9.76
2022-10-26T18:23:31.068Z,9.77
2022-10-26T18:26:11.312Z,9.80
2022-10-26T18:28:44.960Z,9.71
2022-10-26T18:31:13.516Z,9.77
2022-10-26T18:33:40.382Z,9.79
2022-10-26T18:36:09.910Z,9.84
2022-10-26T18:38:38.938Z,9.79
2022-10-26T18:41:06.727Z,9.84
2022-10-26T18:43:33.775Z,9.89
2022-10-26T18:46:04.830Z,9.96
2022-10-26T18:48:34.165Z,9.96
2022-10-26T18:51:05.643Z,9.92
2022-10-26T18:53:35.512Z,9.95
2022-10-26T18:56:07.255Z,9.91
2022-10-26T18:58:36.454Z,9.93
2022-10-26T19:01:08.590Z,9.91
2022-10-26T19:03:35.939Z,9.88
2022-10-26T19:06:15.228Z,9.88
2022-10-26T19:08:43.030Z,9.86
2022-10-26T19:11:13.815Z,9.86
2022-10-26T19:13:41.016Z,9.86
2022-10-26T19:16:21.780Z,9.83
2022-10-26T19:18:58.508Z,9.80
2022-10-26T19:21:27.242Z,9.85
2022-10-26T19:23:56.104Z,9.83
2022-10-26T19:26:36.726Z,9.77
2022-10-26T19:29:06.633Z,9.80
2022-10-26T19:31:34.620Z,9.77
2022-10-26T19:34:02.410Z,9.77
2022-10-26T19:36:29.546Z,9.87
2022-10-26T19:38:56.707Z,9.85
2022-10-26T19:41:24.853Z,9.85
2022-10-26T19:43:55.056Z,9.78
2022-10-26T19:46:23.623Z,9.71
2022-10-26T19:48:52.419Z,9.70
2022-10-26T19:51:20.907Z,9.71
2022-10-26T19:53:48.328Z,9.60
2022-10-26T19:56:15.861Z,9.50
2022-10-26T19:58:48.039Z,9.40
2022-10-26T20:01:21.521Z,9.35
2022-10-26T20:03:49.610Z,9.40
2022-10-26T20:06:16.602Z,9.41
2022-10-26T20:08:48.374Z,9.47
2022-10-26T20:11:16.428Z,9.42
2022-10-26T20:13:49.628Z,9.35
2022-10-26T20:16:18.034Z,9.28
2022-10-26T20:18:47.789Z,9.18
2022-10-26T20:21:16.625Z,9.06
2022-10-26T20:23:43.967Z,9.02
2022-10-26T20:26:12.823Z,8.99
2022-10-26T20:28:44.708Z,8.75
2022-10-26T20:31:11.802Z,8.81
2022-10-26T20:33:41.150Z,8.72
2022-10-26T20:36:08.312Z,8.74
2022-10-26T20:38:36.050Z,8.68
2022-10-26T20:41:06.367Z,8.70
2022-10-26T20:43:39.597Z,8.68
2022-10-26T20:46:07.241Z,8.63
2022-10-26T20:48:34.802Z,8.65
2022-10-26T20:51:06.379Z,8.50
2022-10-26T20:53:38.315Z,8.67
2022-10-26T20:56:10.961Z,8.72
2022-10-26T20:58:40.408Z,8.69
2022-10-26T21:01:18.669Z,8.70
2022-10-26T21:03:45.778Z,8.68
2022-10-26T21:06:14.094Z,8.62
2022-10-26T21:08:40.871Z,8.56
2022-10-26T21:11:09.695Z,8.61
2022-10-26T21:13:36.513Z,8.70
2022-10-26T21:16:04.967Z,8.69
2022-10-26T21:18:32.324Z,8.82
2022-10-26T21:21:04.157Z,8.93
2022-10-26T21:23:35.384Z,8.91
2022-10-26T21:26:04.602Z,8.93
2022-10-26T21:28:34.494Z,8.93
2022-10-26T21:31:02.696Z,9.02
2022-10-26T21:33:29.514Z,9.12
2022-10-26T21:35:56.319Z,9.22
2022-10-26T21:38:23.316Z,9.30
2022-10-26T21:40:51.685Z,9.23
2022-10-26T21:43:18.841Z,9.36
2022-10-26T21:45:45.874Z,9.43
2022-10-26T21:48:12.987Z,9.43
2022-10-26T21:50:41.260Z,9.34
2022-10-26T21:53:09.549Z,9.23
2022-10-26T21:55:36.443Z,9.24
2022-10-26T21:58:07.111Z,9.25
2022-10-26T22:00:34.206Z,9.26
2022-10-26T22:03:02.151Z,9.29
2022-10-26T22:05:28.952Z,9.26
2022-10-26T22:07:56.265Z,9.11
2022-10-26T22:10:23.211Z,9.19
2022-10-26T22:12:50.091Z,9.21
2022-10-26T22:15:19.768Z,9.15
2022-10-26T22:17:46.950Z,9.18
2022-10-26T22:20:14.064Z,9.13
2022-10-26T22:22:40.917Z,9.01
2022-10-26T22:25:08.460Z,9.03
2022-10-26T22:27:35.749Z,9.02
2022-10-26T22:30:02.640Z,9.02
2022-10-26T22:32:31.067Z,8.98
2022-10-26T22:35:10.725Z,8.94
2022-10-26T22:37:38.114Z,8.88
2022-10-26T22:40:06.907Z,8.84
2022-10-26T22:42:33.756Z,8.81
2022-10-26T22:45:00.606Z,8.78
2022-10-26T22:47:28.300Z,8.78
2022-10-26T22:49:57.754Z,8.79
2022-10-26T22:52:25.619Z,8.77
2022-10-26T22:54:52.581Z,8.75
2022-10-26T22:57:19.359Z,8.66
2022-10-26T22:59:46.328Z,8.62
2022-10-26T23:02:13.675Z,8.77
2022-10-26T23:04:40.693Z,8.84
2022-10-26T23:07:09.200Z,8.66
2022-10-26T23:09:35.984Z,8.68
2022-10-26T23:12:04.362Z,8.71
2022-10-26T23:14:31.138Z,8.74
2022-10-26T23:16:58.151Z,8.67
2022-10-26T23:19:25.006Z,8.60
2022-10-26T23:21:52.168Z,8.62
2022-10-26T23:24:20.602Z,8.54
2022-10-26T23:26:47.626Z,8.42
2022-10-26T23:29:14.400Z,8.43
2022-10-26T23:31:41.434Z,8.43
2022-10-26T23:34:09.315Z,8.35
2022-10-26T23:36:38.495Z,8.30
2022-10-26T23:39:05.339Z,8.34
2022-10-26T23:41:33.455Z,8.45
2022-10-26T23:44:00.849Z,8.48
2022-10-26T23:46:28.036Z,8.43
2022-10-26T23:48:54.945Z,8.48
2022-10-26T23:51:22.242Z,8.48
2022-10-26T23:53:50.259Z,8.50
2022-10-26T23:56:17.002Z,8.55
2022-10-26T23:58:51.718Z,8.59
